Time;durP1;ratioP1;P1;durP2;ratioP2;P2;SDS_P1;SDS_P2;PMS_P1;PMS_P2;Temp;Humidity;BMP_temperature;BMP_pressure;BME280_temperature;BME280_humidity;BME280_pressure;Samples;Min_cycle;Max_cycle;Signal;HPM_P1;HPM_P2
2022/04/05 00:00:17;;;;;;;0.50;0.40;;;17.30;54.80;;;;;;5103974;27;46430;-80
2022/04/05 00:02:43;;;;;;;0.40;0.40;;;17.30;54.80;;;;;;5105664;27;45316;-80
2022/04/05 00:05:12;;;;;;;0.50;0.50;;;17.30;54.80;;;;;;5103282;27;45481;-80
2022/04/05 00:07:39;;;;;;;0.40;0.40;;;17.20;55.10;;;;;;5103437;27;46462;-79
2022/04/05 00:10:06;;;;;;;0.45;0.45;;;17.20;54.90;;;;;;5098994;27;45312;-80
2022/04/05 00:12:33;;;;;;;0.30;0.30;;;17.20;55.20;;;;;;5104566;27;45356;-80
2022/04/05 00:15:00;;;;;;;0.70;0.47;;;17.20;55.40;;;;;;5106785;27;45295;-80
2022/04/05 00:17:27;;;;;;;0.90;0.40;;;17.20;55.50;;;;;;5104121;27;46433;-80
2022/04/05 00:19:53;;;;;;;2.15;0.63;;;17.20;55.20;;;;;;5102201;27;45231;-80
2022/04/05 00:22:22;;;;;;;1.05;0.40;;;17.30;55.50;;;;;;5095266;27;45320;-79
2022/04/05 00:24:48;;;;;;;0.60;0.50;;;17.30;55.60;;;;;;5100977;27;45160;-79
2022/04/05 00:27:15;;;;;;;0.40;0.40;;;17.30;55.30;;;;;;5103132;27;45213;-79
2022/04/05 00:29:42;;;;;;;0.40;0.40;;;17.30;55.30;;;;;;5098484;27;45250;-79
2022/04/05 00:32:09;;;;;;;0.40;0.40;;;17.30;55.40;;;;;;5101736;27;45373;-79
2022/04/05 00:34:37;;;;;;;0.40;0.40;;;17.30;55.40;;;;;;5098535;27;45507;-79
2022/04/05 00:37:04;;;;;;;0.80;0.43;;;17.30;55.10;;;;;;5101661;27;46287;-80
2022/04/05 00:39:32;;;;;;;0.60;0.43;;;17.30;55.50;;;;;;5099167;27;45177;-80
2022/04/05 00:41:59;;;;;;;0.30;0.30;;;17.30;55.90;;;;;;5102426;27;45262;-79
2022/04/05 00:44:26;;;;;;;1.20;0.50;;;17.30;56.00;;;;;;5097417;27;45498;-79
2022/04/05 00:46:55;;;;;;;0.47;0.47;;;17.30;56.20;;;;;;5106013;27;46563;-79
2022/04/05 00:49:28;;;;;;;0.35;0.35;;;17.30;57.20;;;;;;5088587;27;45408;-79
2022/04/05 00:51:55;;;;;;;0.30;0.30;;;17.30;56.20;;;;;;5105942;27;45321;-80
2022/04/05 00:54:25;;;;;;;0.43;0.40;;;17.30;56.00;;;;;;5095993;27;45496;-79
2022/04/05 00:56:56;;;;;;;0.50;0.50;;;17.30;56.30;;;;;;5105646;27;46080;-79
2022/04/05 00:59:27;;;;;;;0.60;0.60;;;17.30;56.20;;;;;;5100538;27;45558;-80
2022/04/05 01:01:55;;;;;;;0.40;0.40;;;17.30;56.20;;;;;;5108747;27;45799;-79
2022/04/05 01:04:23;;;;;;;0.82;0.50;;;17.30;56.80;;;;;;5106874;27;45483;-79
2022/04/05 01:06:52;;;;;;;0.50;0.50;;;17.20;56.50;;;;;;5109572;27;45216;-80
2022/04/05 01:09:21;;;;;;;1.13;0.60;;;17.30;56.70;;;;;;5106202;27;45566;-81
2022/04/05 01:11:48;;;;;;;0.50;0.40;;;17.30;56.80;;;;;;5109353;27;45267;-81
2022/04/05 01:14:16;;;;;;;0.65;0.60;;;17.30;56.50;;;;;;5108905;27;45484;-80
2022/04/05 01:16:43;;;;;;;0.50;0.50;;;17.60;57.20;;;;;;5101218;27;47940;-80
2022/04/05 01:19:10;;;;;;;1.38;0.50;;;17.30;57.80;;;;;;5106764;27;45189;-80
2022/04/05 01:21:37;;;;;;;0.50;0.50;;;17.30;56.40;;;;;;5107260;27;45390;-80
2022/04/05 01:24:07;;;;;;;0.50;0.30;;;17.30;56.80;;;;;;5098903;27;45356;-80
2022/04/05 01:26:45;;;;;;;0.45;0.45;;;17.30;56.60;;;;;;5105914;27;45298;-80
2022/04/05 01:29:13;;;;;;;0.65;0.50;;;17.30;58.10;;;;;;5105450;27;45218;-81
2022/04/05 01:31:43;;;;;;;0.70;0.45;;;17.30;57.00;;;;;;5108452;27;45257;-80
2022/04/05 01:34:10;;;;;;;0.60;0.50;;;17.30;57.20;;;;;;5108225;27;45451;-81
2022/04/05 01:36:43;;;;;;;0.45;0.45;;;17.30;57.30;;;;;;5097388;27;45355;-80
2022/04/05 01:39:11;;;;;;;0.40;0.32;;;17.30;58.70;;;;;;5108908;27;45175;-81
2022/04/05 01:41:38;;;;;;;0.50;0.50;;;17.30;57.30;;;;;;5107332;27;45310;-80
2022/04/05 01:44:06;;;;;;;0.30;0.30;;;17.30;57.20;;;;;;5108771;27;45297;-80
2022/04/05 01:46:33;;;;;;;0.50;0.45;;;17.30;57.40;;;;;;5106520;27;46578;-82
2022/04/05 01:49:00;;;;;;;0.40;0.40;;;17.30;57.50;;;;;;5107964;27;45163;-80
2022/04/05 01:51:27;;;;;;;0.57;0.57;;;17.30;58.00;;;;;;5105993;27;45285;-81
2022/04/05 01:53:57;;;;;;;0.70;0.55;;;17.30;57.90;;;;;;5107416;27;45466;-81
2022/04/05 01:56:25;;;;;;;0.40;0.40;;;17.30;57.90;;;;;;5105513;27;47010;-81
2022/04/05 01:58:52;;;;;;;0.50;0.50;;;17.30;58.20;;;;;;5106257;27;45368;-81
2022/04/05 02:01:19;;;;;;;0.40;0.40;;;17.30;57.90;;;;;;5106928;27;45351;-80
2022/04/05 02:03:46;;;;;;;0.82;0.50;;;17.30;57.60;;;;;;5106307;27;45355;-80
2022/04/05 02:06:12;;;;;;;0.50;0.50;;;17.30;57.50;;;;;;5103991;27;45965;-81
2022/04/05 02:08:39;;;;;;;0.43;0.43;;;17.30;57.50;;;;;;5104742;27;45961;-81
2022/04/05 02:11:06;;;;;;;0.50;0.50;;;17.30;57.50;;;;;;5105885;27;45150;-80
2022/04/05 02:13:34;;;;;;;0.63;0.50;;;17.30;57.80;;;;;;5106428;27;45791;-81
2022/04/05 02:16:02;;;;;;;0.60;0.60;;;17.20;57.60;;;;;;5106536;27;45312;-81
2022/04/05 02:18:29;;;;;;;0.55;0.52;;;17.30;58.20;;;;;;5101266;27;45276;-81
2022/04/05 02:20:56;;;;;;;0.43;0.43;;;17.40;58.40;;;;;;5100841;27;45832;-81
2022/04/05 02:23:23;;;;;;;0.55;0.50;;;17.30;58.20;;;;;;5113710;27;45254;-81
2022/04/05 02:25:50;;;;;;;0.50;0.50;;;17.30;58.50;;;;;;5105375;27;47107;-81
2022/04/05 02:28:17;;;;;;;0.60;0.60;;;17.30;58.00;;;;;;5100362;27;45438;-81
2022/04/05 02:30:45;;;;;;;0.63;0.50;;;17.30;58.80;;;;;;5104921;27;45275;-81
2022/04/05 02:33:12;;;;;;;0.50;0.43;;;17.30;58.70;;;;;;5106569;27;45468;-81
2022/04/05 02:35:39;;;;;;;0.65;0.50;;;17.30;58.60;;;;;;5103675;27;46386;-81
2022/04/05 02:38:06;;;;;;;0.60;0.60;;;17.30;58.50;;;;;;5104275;27;45375;-81
2022/04/05 02:40:33;;;;;;;0.50;0.50;;;17.30;59.20;;;;;;5105756;27;45216;-81
2022/04/05 02:43:00;;;;;;;0.93;0.60;;;17.30;58.90;;;;;;5106771;27;45205;-81
2022/04/05 02:45:26;;;;;;;0.43;0.43;;;17.30;59.30;;;;;;5095471;27;45233;-81
2022/04/05 02:47:55;;;;;;;0.57;0.57;;;17.30;59.50;;;;;;5102905;27;45638;-81
2022/04/05 02:50:22;;;;;;;0.73;0.70;;;17.30;59.20;;;;;;5106876;27;45322;-81
2022/04/05 02:52:49;;;;;;;0.85;0.70;;;17.30;59.40;;;;;;5101503;27;45437;-81
2022/04/05 02:55:16;;;;;;;1.15;0.70;;;17.30;59.00;;;;;;5102923;27;48277;-81
2022/04/05 02:57:45;;;;;;;0.60;0.60;;;17.30;59.00;;;;;;5106767;27;45831;-81
2022/04/05 03:00:15;;;;;;;0.70;0.65;;;17.40;58.90;;;;;;5105757;27;45222;-81
2022/04/05 03:02:43;;;;;;;0.60;0.50;;;17.40;59.00;;;;;;5104735;27;45604;-81
2022/04/05 03:05:13;;;;;;;0.60;0.60;;;17.40;59.00;;;;;;5103283;27;47918;-80
2022/04/05 03:07:40;;;;;;;1.23;0.90;;;17.40;59.60;;;;;;5100132;27;45344;-81
2022/04/05 03:10:10;;;;;;;0.60;0.60;;;17.30;59.60;;;;;;5104894;27;45805;-80
2022/04/05 03:12:38;;;;;;;0.60;0.60;;;17.30;60.30;;;;;;5102201;27;46661;-80
2022/04/05 03:15:06;;;;;;;0.40;0.40;;;17.30;60.10;;;;;;5103792;27;46227;-80
2022/04/05 03:17:33;;;;;;;0.70;0.50;;;17.30;59.30;;;;;;5105398;27;45252;-80
2022/04/05 03:20:00;;;;;;;0.68;0.52;;;17.20;59.30;;;;;;5096499;27;45363;-80
2022/04/05 03:22:29;;;;;;;0.60;0.60;;;17.20;59.30;;;;;;5100849;27;45297;-80
2022/04/05 03:24:55;;;;;;;0.40;0.40;;;17.20;59.40;;;;;;5105971;27;45979;-80
2022/04/05 03:27:23;;;;;;;0.77;0.70;;;17.20;60.00;;;;;;5107765;27;45217;-80
2022/04/05 03:29:49;;;;;;;0.70;0.57;;;17.20;59.90;;;;;;5098460;27;45267;-80
2022/04/05 03:32:16;;;;;;;0.60;0.60;;;17.20;60.30;;;;;;5109426;27;45201;-81
2022/04/05 03:34:43;;;;;;;0.60;0.55;;;17.20;60.00;;;;;;5108527;27;45570;-80
2022/04/05 03:37:11;;;;;;;0.90;0.55;;;17.20;59.90;;;;;;5094772;27;45424;-80
2022/04/05 03:39:39;;;;;;;0.73;0.65;;;17.30;60.10;;;;;;5107821;27;45464;-80
2022/04/05 03:42:06;;;;;;;0.60;0.50;;;17.30;59.90;;;;;;5108711;27;45445;-80
2022/04/05 03:44:33;;;;;;;0.95;0.60;;;17.30;60.00;;;;;;5106699;27;47078;-80
2022/04/05 03:47:01;;;;;;;0.60;0.50;;;17.30;60.00;;;;;;5106951;27;45274;-80
2022/04/05 03:49:27;;;;;;;0.70;0.68;;;17.30;60.10;;;;;;5106506;27;45275;-80
2022/04/05 03:51:54;;;;;;;0.60;0.60;;;17.30;60.10;;;;;;5108502;27;45361;-80
2022/04/05 03:54:21;;;;;;;1.48;0.60;;;17.30;60.00;;;;;;5104098;27;47499;-80
2022/04/05 03:56:49;;;;;;;1.02;0.70;;;17.30;60.30;;;;;;5108296;27;45159;-80
2022/04/05 03:59:16;;;;;;;1.00;0.50;;;17.30;60.60;;;;;;5107511;27;45236;-80
2022/04/05 04:01:43;;;;;;;0.63;0.50;;;17.30;60.50;;;;;;5104166;27;46473;-80
2022/04/05 04:04:09;;;;;;;0.52;0.52;;;17.30;60.70;;;;;;5105085;27;46541;-80
2022/04/05 04:06:36;;;;;;;0.50;0.50;;;17.30;62.10;;;;;;5108200;27;45421;-80
2022/04/05 04:09:03;;;;;;;0.50;0.50;;;17.30;61.40;;;;;;5104815;27;45212;-80
2022/04/05 04:11:30;;;;;;;0.63;0.63;;;17.30;61.30;;;;;;5103948;27;45996;-80
2022/04/05 04:13:59;;;;;;;0.40;0.40;;;17.30;61.10;;;;;;5098283;27;45753;-80
2022/04/05 04:16:26;;;;;;;0.90;0.70;;;17.30;61.30;;;;;;5099396;27;46587;-80
2022/04/05 04:18:53;;;;;;;0.90;0.77;;;17.30;61.30;;;;;;5105755;27;45246;-80
2022/04/05 04:21:19;;;;;;;0.68;0.68;;;17.20;61.20;;;;;;5106169;27;45286;-80
2022/04/05 04:23:46;;;;;;;1.02;0.60;;;17.20;61.00;;;;;;5103766;27;47454;-80
2022/04/05 04:26:13;;;;;;;0.60;0.60;;;17.30;61.20;;;;;;5104326;27;45309;-80
2022/04/05 04:28:42;;;;;;;0.80;0.77;;;17.30;61.00;;;;;;5106977;27;45357;-80
2022/04/05 04:31:10;;;;;;;0.82;0.75;;;17.30;60.80;;;;;;5101770;27;45318;-80
2022/04/05 04:33:37;;;;;;;0.70;0.70;;;17.30;61.00;;;;;;5106373;27;46744;-80
2022/04/05 04:36:04;;;;;;;0.65;0.60;;;17.30;60.60;;;;;;5109943;27;45227;-80
2022/04/05 04:38:31;;;;;;;0.85;0.60;;;17.30;61.00;;;;;;5102206;27;45250;-80
2022/04/05 04:40:58;;;;;;;0.95;0.88;;;17.30;60.60;;;;;;5107750;27;45262;-80
2022/04/05 04:43:27;;;;;;;1.50;1.10;;;17.30;61.70;;;;;;5114758;27;46419;-80
2022/04/05 04:45:54;;;;;;;1.45;1.13;;;17.30;61.70;;;;;;5108902;27;45156;-80
2022/04/05 04:48:23;;;;;;;2.00;1.20;;;17.30;62.10;;;;;;5100748;27;45550;-80
2022/04/05 04:50:51;;;;;;;1.00;0.90;;;17.30;62.10;;;;;;5106383;27;45345;-80
2022/04/05 04:53:18;;;;;;;1.10;1.00;;;17.20;61.90;;;;;;5111184;27;46597;-80
2022/04/05 04:55:44;;;;;;;1.13;1.02;;;17.30;62.00;;;;;;5098304;27;45330;-80
2022/04/05 04:58:11;;;;;;;1.75;1.20;;;17.20;61.90;;;;;;5105224;27;45252;-80
2022/04/05 05:00:38;;;;;;;1.30;1.20;;;17.30;62.10;;;;;;5103292;27;45502;-80
2022/04/05 05:03:06;;;;;;;1.35;1.00;;;17.20;62.10;;;;;;5103589;27;47123;-79
2022/04/05 05:05:34;;;;;;;1.23;1.13;;;17.20;61.90;;;;;;5105405;27;45209;-79
2022/04/05 05:08:01;;;;;;;1.42;1.30;;;17.20;62.10;;;;;;5107244;27;45208;-80
2022/04/05 05:10:28;;;;;;;1.58;1.10;;;17.20;62.40;;;;;;5103756;27;45350;-80
2022/04/05 05:12:55;;;;;;;1.15;0.80;;;17.30;62.10;;;;;;5103847;27;47396;-79
2022/04/05 05:15:22;;;;;;;1.45;1.23;;;17.30;62.00;;;;;;5106762;27;45671;-81
2022/04/05 05:17:49;;;;;;;1.20;1.10;;;17.30;61.80;;;;;;5106698;27;45327;-80
2022/04/05 05:20:17;;;;;;;1.73;1.27;;;17.30;61.40;;;;;;5107788;27;45457;-81
2022/04/05 05:22:45;;;;;;;1.48;1.33;;;17.30;61.30;;;;;;5109714;27;48339;-81
2022/04/05 05:25:13;;;;;;;1.70;1.17;;;17.20;62.00;;;;;;5104634;27;45435;-82
2022/04/05 05:27:40;;;;;;;1.60;1.50;;;17.20;62.50;;;;;;5103884;27;45233;-82
2022/04/05 05:30:08;;;;;;;2.47;2.00;;;17.20;62.40;;;;;;5107103;27;45463;-81
2022/04/05 05:32:43;;;;;;;2.57;2.20;;;17.20;63.50;;;;;;5105622;27;48588;-80
2022/04/05 05:35:10;;;;;;;2.40;2.20;;;17.20;63.90;;;;;;5106565;27;45274;-80
2022/04/05 05:37:37;;;;;;;2.50;2.30;;;17.20;63.80;;;;;;5109644;27;45241;-81
2022/04/05 05:40:06;;;;;;;2.10;1.90;;;17.20;63.80;;;;;;5104822;27;45156;-79
2022/04/05 05:42:33;;;;;;;1.98;1.83;;;17.20;63.60;;;;;;5099303;27;47333;-80
2022/04/05 05:44:59;;;;;;;2.03;1.80;;;17.20;63.20;;;;;;5103046;27;45414;-79
2022/04/05 05:47:26;;;;;;;2.10;1.75;;;17.20;63.10;;;;;;5106448;27;45347;-79
2022/04/05 05:49:53;;;;;;;2.03;1.80;;;17.20;63.00;;;;;;5104938;27;46287;-79
2022/04/05 05:52:20;;;;;;;2.47;1.50;;;17.20;62.90;;;;;;5109617;27;47753;-79
2022/04/05 05:54:48;;;;;;;1.73;1.60;;;17.20;62.20;;;;;;5106095;27;45281;-80
2022/04/05 05:57:16;;;;;;;2.45;1.58;;;17.20;62.50;;;;;;5102070;27;45394;-79
2022/04/05 05:59:43;;;;;;;2.22;1.60;;;17.20;61.80;;;;;;5106627;27;45657;-79
2022/04/05 06:02:10;;;;;;;1.88;1.58;;;17.20;61.40;;;;;;5101973;27;46311;-81
2022/04/05 06:04:37;;;;;;;1.70;1.52;;;17.20;61.70;;;;;;5098408;27;45179;-79
2022/04/05 06:07:04;;;;;;;3.75;1.70;;;17.30;62.10;;;;;;5102861;27;45248;-80
2022/04/05 06:09:30;;;;;;;2.00;1.55;;;17.30;62.30;;;;;;5100998;27;45339;-80
2022/04/05 06:11:57;;;;;;;1.95;1.60;;;17.30;61.90;;;;;;5105593;27;45705;-81
2022/04/05 06:14:25;;;;;;;1.85;1.55;;;17.40;62.20;;;;;;5107872;27;45235;-80
2022/04/05 06:16:52;;;;;;;2.53;1.70;;;17.40;61.90;;;;;;5105812;27;46697;-80
2022/04/05 06:19:19;;;;;;;2.17;1.67;;;17.40;62.10;;;;;;5105486;27;45524;-79
2022/04/05 06:21:45;;;;;;;2.08;1.55;;;17.40;62.60;;;;;;5104978;27;47443;-80
2022/04/05 06:24:12;;;;;;;2.88;1.27;;;17.40;61.90;;;;;;5105273;27;45729;-79
2022/04/05 06:26:39;;;;;;;1.20;1.10;;;17.40;62.10;;;;;;5108398;27;45361;-79
2022/04/05 06:29:06;;;;;;;2.15;1.40;;;17.40;62.60;;;;;;5102284;27;45538;-80
2022/04/05 06:31:34;;;;;;;2.08;1.52;;;17.40;62.20;;;;;;5092469;27;47201;-80
2022/04/05 06:34:02;;;;;;;1.23;1.13;;;17.40;61.80;;;;;;5090852;27;45415;-80
2022/04/05 06:36:29;;;;;;;1.70;1.35;;;17.40;62.50;;;;;;5101319;27;45613;-79
2022/04/05 06:38:56;;;;;;;1.65;1.35;;;17.40;62.10;;;;;;5096565;27;46027;-80
2022/04/05 06:41:24;;;;;;;2.00;1.48;;;17.40;63.10;;;;;;5099356;27;45481;-80
2022/04/05 06:43:51;;;;;;;1.45;1.35;;;17.30;62.60;;;;;;5092282;27;45335;-80
2022/04/05 06:46:18;;;;;;;3.35;1.27;;;17.40;62.70;;;;;;5096048;27;46656;-79
2022/04/05 06:48:46;;;;;;;12.48;1.70;;;17.40;62.00;;;;;;5098082;27;45212;-79
2022/04/05 06:51:13;;;;;;;9.73;1.40;;;17.40;63.10;;;;;;5092763;27;47931;-79
2022/04/05 06:53:40;;;;;;;4.22;1.65;;;17.40;63.90;;;;;;5106539;27;45183;-79
2022/04/05 06:56:09;;;;;;;2.50;1.20;;;17.50;63.30;;;;;;5104738;27;45527;-79
2022/04/05 06:58:36;;;;;;;5.93;1.33;;;17.50;63.50;;;;;;5105767;27;45335;-79
2022/04/05 07:01:02;;;;;;;3.05;1.20;;;17.50;63.30;;;;;;5100335;27;48742;-79
2022/04/05 07:03:29;;;;;;;5.47;1.23;;;17.50;63.40;;;;;;5101538;27;45422;-79
2022/04/05 07:05:58;;;;;;;2.97;1.33;;;17.50;63.60;;;;;;5097060;27;46650;-79
2022/04/05 07:08:24;;;;;;;4.05;2.13;;;17.50;63.50;;;;;;5102038;27;45519;-79
2022/04/05 07:10:51;;;;;;;2.63;1.25;;;17.50;63.40;;;;;;5105821;27;47972;-79
2022/04/05 07:13:18;;;;;;;2.97;1.38;;;17.50;63.40;;;;;;5099189;27;45710;-79
2022/04/05 07:15:45;;;;;;;2.75;1.23;;;17.50;63.40;;;;;;5102008;27;45243;-80
2022/04/05 07:18:12;;;;;;;1.67;1.10;;;17.50;63.50;;;;;;5105701;27;45627;-79
2022/04/05 07:20:39;;;;;;;1.10;0.90;;;17.50;63.50;;;;;;5107813;27;46699;-79
2022/04/05 07:23:07;;;;;;;1.25;1.10;;;17.50;63.30;;;;;;5108205;27;45419;-79
2022/04/05 07:25:35;;;;;;;2.03;1.10;;;17.50;63.60;;;;;;5107935;27;45327;-79
2022/04/05 07:28:03;;;;;;;1.67;1.10;;;17.50;63.40;;;;;;5105181;27;45193;-79
2022/04/05 07:30:30;;;;;;;1.10;0.98;;;17.50;63.60;;;;;;5106197;27;47973;-79
2022/04/05 07:32:57;;;;;;;1.30;1.08;;;17.50;63.40;;;;;;5107212;27;45622;-79
2022/04/05 07:35:23;;;;;;;1.67;1.10;;;17.50;63.20;;;;;;5103042;27;45531;-79
2022/04/05 07:37:51;;;;;;;1.40;0.80;;;17.50;63.30;;;;;;5107744;27;45252;-79
2022/04/05 07:40:20;;;;;;;1.38;0.90;;;17.50;63.40;;;;;;5106096;27;47844;-79
2022/04/05 07:42:47;;;;;;;2.47;0.90;;;17.50;63.20;;;;;;5105542;27;45257;-79
2022/04/05 07:45:16;;;;;;;1.15;0.98;;;17.50;63.30;;;;;;5108112;27;45431;-79
2022/04/05 07:47:44;;;;;;;1.13;0.90;;;17.50;63.20;;;;;;5102074;27;45488;-79
2022/04/05 07:50:11;;;;;;;1.50;1.00;;;17.50;63.30;;;;;;5106116;27;46618;-80
2022/04/05 07:52:37;;;;;;;1.38;0.80;;;17.50;63.40;;;;;;5099603;27;45741;-79
2022/04/05 07:55:06;;;;;;;1.20;1.10;;;17.50;63.50;;;;;;5107356;27;45518;-79
2022/04/05 07:57:36;;;;;;;1.95;1.10;;;17.50;63.50;;;;;;5105408;27;45219;-79
2022/04/05 08:00:04;;;;;;;2.30;1.20;;;17.50;63.30;;;;;;5101354;27;46260;-79
2022/04/05 08:02:31;;;;;;;1.23;1.13;;;17.50;63.60;;;;;;5105091;27;45355;-79
2022/04/05 08:04:58;;;;;;;3.47;1.40;;;17.50;63.60;;;;;;5103822;27;45428;-79
2022/04/05 08:07:24;;;;;;;1.20;0.98;;;17.50;63.70;;;;;;5108000;27;45427;-79
2022/04/05 08:09:51;;;;;;;1.10;1.00;;;17.50;63.50;;;;;;5112114;27;46336;-79
2022/04/05 08:12:18;;;;;;;1.65;1.10;;;17.50;63.40;;;;;;5106503;27;45713;-79
2022/04/05 08:14:46;;;;;;;1.52;1.38;;;17.50;63.50;;;;;;5110721;27;45511;-79
2022/04/05 08:17:13;;;;;;;1.52;1.20;;;17.50;63.20;;;;;;5111073;27;45176;-79
2022/04/05 08:19:40;;;;;;;1.17;1.08;;;17.50;63.70;;;;;;5106829;27;46495;-79
2022/04/05 08:22:08;;;;;;;2.47;1.42;;;17.50;63.50;;;;;;5114000;27;45343;-79
2022/04/05 08:24:35;;;;;;;1.23;1.13;;;17.50;63.80;;;;;;5114298;27;45368;-79
2022/04/05 08:27:02;;;;;;;1.45;1.17;;;17.50;63.70;;;;;;5113490;27;45211;-79
2022/04/05 08:29:29;;;;;;;1.35;1.20;;;17.50;64.20;;;;;;5111937;27;46514;-80
2022/04/05 08:31:57;;;;;;;2.40;1.50;;;17.50;64.00;;;;;;5112591;27;45125;-79
2022/04/05 08:34:24;;;;;;;1.40;1.30;;;17.50;63.70;;;;;;5110430;27;45206;-79
2022/04/05 08:36:52;;;;;;;2.25;1.30;;;17.50;63.60;;;;;;5114155;27;45459;-79
2022/04/05 08:39:18;;;;;;;2.15;1.40;;;17.50;63.60;;;;;;5103901;27;47419;-79
2022/04/05 08:41:47;;;;;;;1.80;1.13;;;17.50;63.70;;;;;;5112014;27;45667;-79
2022/04/05 08:44:18;;;;;;;2.22;1.30;;;17.50;64.20;;;;;;5113703;27;45645;-79
2022/04/05 08:46:45;;;;;;;1.52;1.33;;;17.40;63.90;;;;;;5114250;27;45572;-79
2022/04/05 08:49:13;;;;;;;1.65;1.33;;;17.40;64.00;;;;;;5111771;27;45990;-79
2022/04/05 08:51:40;;;;;;;2.58;1.10;;;17.40;64.30;;;;;;5106758;27;45242;-79
2022/04/05 08:54:07;;;;;;;1.58;1.30;;;17.40;64.60;;;;;;5112186;27;45277;-79
2022/04/05 08:56:34;;;;;;;3.42;1.58;;;17.40;64.00;;;;;;5114260;27;45497;-79
2022/04/05 08:59:01;;;;;;;2.05;1.27;;;17.50;64.40;;;;;;5110901;27;45538;-79
2022/04/05 09:01:29;;;;;;;1.60;1.20;;;17.50;63.90;;;;;;5108516;27;45438;-79
2022/04/05 09:03:56;;;;;;;1.15;1.05;;;17.40;63.60;;;;;;5110240;27;45340;-79
2022/04/05 09:06:31;;;;;;;2.00;1.30;;;17.40;63.60;;;;;;5110870;27;45243;-79
2022/04/05 09:08:59;;;;;;;1.65;1.20;;;17.40;63.70;;;;;;5111584;27;46247;-79
2022/04/05 09:11:29;;;;;;;1.33;1.23;;;17.40;63.60;;;;;;5113683;27;45619;-79
2022/04/05 09:14:00;;;;;;;1.10;0.90;;;17.40;63.90;;;;;;5108497;27;45470;-79
2022/04/05 09:16:31;;;;;;;1.38;1.23;;;17.40;63.80;;;;;;5104755;27;45352;-79
2022/04/05 09:18:58;;;;;;;1.20;1.10;;;17.40;63.90;;;;;;5108819;27;45339;-79
2022/04/05 09:21:25;;;;;;;1.83;1.45;;;17.40;64.40;;;;;;5107522;27;45451;-79
2022/04/05 09:24:05;;;;;;;2.35;1.38;;;17.40;64.00;;;;;;5104763;27;45483;-79
2022/04/05 09:26:42;;;;;;;1.30;1.20;;;17.40;64.00;;;;;;5100761;27;45461;-79
2022/04/05 09:29:10;;;;;;;1.65;1.40;;;17.40;64.20;;;;;;5104025;27;45473;-79
2022/04/05 09:31:44;;;;;;;1.75;1.40;;;17.40;64.40;;;;;;5102464;27;45415;-79
2022/04/05 09:34:13;;;;;;;1.70;1.35;;;17.40;65.40;;;;;;5109310;27;45345;-79
2022/04/05 09:36:41;;;;;;;1.50;1.40;;;17.40;64.70;;;;;;5107318;27;45162;-79
2022/04/05 09:39:21;;;;;;;1.38;1.25;;;17.40;64.80;;;;;;5104529;27;47936;-80
2022/04/05 09:41:52;;;;;;;2.22;1.50;;;17.40;65.40;;;;;;5099747;27;45486;-79
2022/04/05 09:44:29;;;;;;;2.43;1.73;;;17.30;65.20;;;;;;5094381;27;45589;-79
2022/04/05 09:47:04;;;;;;;4.78;1.40;;;17.30;65.30;;;;;;5095229;27;45279;-79
2022/04/05 09:49:36;;;;;;;1.70;1.55;;;17.30;65.30;;;;;;5103412;27;46182;-83
2022/04/05 09:52:21;;;;;;;6.07;1.23;;;17.30;65.90;;;;;;5100518;27;45606;-79
2022/04/05 09:54:50;;;;;;;2.50;1.52;;;17.40;64.00;;;;;;5102573;27;45442;-79
2022/04/05 09:57:28;;;;;;;1.70;1.20;;;17.40;64.50;;;;;;5101336;27;45456;-79
2022/04/05 10:00:08;;;;;;;2.75;1.60;;;17.40;64.30;;;;;;5105816;27;45429;-79
2022/04/05 10:02:35;;;;;;;2.33;1.48;;;17.30;64.70;;;;;;5102642;27;45214;-78
2022/04/05 10:05:06;;;;;;;2.17;1.27;;;17.30;65.30;;;;;;5106255;27;45784;-79
2022/04/05 10:07:33;;;;;;;3.15;1.50;;;17.30;64.00;;;;;;5102717;27;45454;-79
2022/04/05 10:10:05;;;;;;;2.70;1.45;;;17.40;64.90;;;;;;5098703;27;45480;-79
2022/04/05 10:12:32;;;;;;;2.03;1.60;;;17.40;65.00;;;;;;5103771;27;45345;-79
2022/04/05 10:15:00;;;;;;;4.57;1.70;;;17.40;65.00;;;;;;5108205;27;45184;-80
2022/04/05 10:17:28;;;;;;;3.85;1.77;;;17.40;65.10;;;;;;5104063;27;45397;-80
2022/04/05 10:19:57;;;;;;;2.20;1.88;;;17.40;65.30;;;;;;5104368;27;46251;-80
2022/04/05 10:22:25;;;;;;;3.40;1.65;;;17.40;65.20;;;;;;5108590;27;45378;-80
2022/04/05 10:24:53;;;;;;;1.67;1.45;;;17.40;65.30;;;;;;5105613;27;45442;-80
2022/04/05 10:27:22;;;;;;;2.50;1.60;;;17.40;65.70;;;;;;5100535;27;45502;-80
2022/04/05 10:29:54;;;;;;;2.60;1.50;;;17.40;65.40;;;;;;5107074;27;45357;-80
2022/04/05 10:32:32;;;;;;;3.03;1.70;;;17.40;65.70;;;;;;5104304;27;45185;-80
2022/04/05 10:35:04;;;;;;;2.40;1.77;;;17.40;66.10;;;;;;5105519;27;45193;-80
2022/04/05 10:37:34;;;;;;;1.58;1.40;;;17.40;66.10;;;;;;5108441;27;45436;-80
2022/04/05 10:40:17;;;;;;;2.58;1.80;;;17.40;66.70;;;;;;5107857;27;45491;-80
2022/04/05 10:42:47;;;;;;;2.50;1.60;;;17.40;66.90;;;;;;5106453;27;45332;-79
2022/04/05 10:45:17;;;;;;;3.45;1.48;;;17.40;66.20;;;;;;5107370;27;45317;-80
2022/04/05 10:48:01;;;;;;;1.45;1.35;;;17.40;66.60;;;;;;5107544;27;45237;-80
2022/04/05 10:50:29;;;;;;;2.60;1.77;;;17.40;66.50;;;;;;5103296;27;46613;-81
2022/04/05 10:53:17;;;;;;;2.55;1.23;;;17.30;65.80;;;;;;5100953;27;45327;-80
2022/04/05 10:56:15;;;;;;;1.40;1.30;;;17.30;66.60;;;;;;5106094;27;45536;-79
2022/04/05 10:59:20;;;;;;;2.22;1.30;;;17.30;66.20;;;;;;5102416;27;45480;-79
2022/04/05 11:01:48;;;;;;;1.67;1.15;;;17.40;65.60;;;;;;5102447;27;47338;-80
2022/04/05 11:04:33;;;;;;;1.50;1.30;;;17.40;65.70;;;;;;5105577;27;45225;-79
2022/04/05 11:07:11;;;;;;;1.75;1.20;;;17.40;65.80;;;;;;5106133;27;45322;-79
2022/04/05 11:09:44;;;;;;;1.63;1.30;;;17.40;65.60;;;;;;5099704;27;45374;-79
2022/04/05 11:12:12;;;;;;;1.90;1.50;;;17.40;66.10;;;;;;5096889;27;47908;-79
2022/04/05 11:14:43;;;;;;;1.35;1.20;;;17.40;66.30;;;;;;5105938;27;45209;-79
2022/04/05 11:17:14;;;;;;;1.88;1.52;;;17.40;65.90;;;;;;5102296;27;45283;-79
2022/04/05 11:19:43;;;;;;;1.85;1.20;;;17.40;65.90;;;;;;5104322;27;45554;-79
2022/04/05 11:22:43;;;;;;;1.75;1.40;;;17.40;65.90;;;;;;5107355;27;45337;-79
2022/04/05 11:25:11;;;;;;;1.48;1.20;;;17.40;66.30;;;;;;5104035;27;45261;-79
2022/04/05 11:27:44;;;;;;;2.58;1.40;;;17.50;66.00;;;;;;5105764;27;45280;-79
2022/04/05 11:30:50;;;;;;;2.80;1.48;;;17.50;66.50;;;;;;5103108;27;45234;-79
2022/04/05 11:33:36;;;;;;;1.30;1.15;;;17.40;67.70;;;;;;5058630;28;46184;-79
2022/04/05 11:36:07;;;;;;;1.98;1.50;;;17.40;66.50;;;;;;5053035;28;45903;-79
2022/04/05 11:38:36;;;;;;;2.08;1.77;;;17.40;66.90;;;;;;5083813;27;45254;-79
2022/04/05 11:41:08;;;;;;;1.95;1.20;;;17.40;67.10;;;;;;5104504;27;45534;-79
2022/04/05 11:43:36;;;;;;;1.58;1.30;;;17.40;65.60;;;;;;5103054;27;46312;-79
2022/04/05 11:46:09;;;;;;;1.73;1.47;;;17.40;66.40;;;;;;5104648;27;45279;-79
2022/04/05 11:48:41;;;;;;;4.63;1.70;;;17.40;68.30;;;;;;5104086;27;45133;-76
2022/04/05 11:51:10;;;;;;;6.97;1.63;;;17.50;71.20;;;;;;5102283;27;45547;-77
2022/04/05 11:53:37;;;;;;;3.70;1.70;;;17.50;72.10;;;;;;5104482;27;47271;-78
2022/04/05 11:56:10;;;;;;;3.10;1.40;;;17.50;71.80;;;;;;5107312;27;45788;-78
2022/04/05 11:58:39;;;;;;;2.10;1.50;;;17.40;71.50;;;;;;5101013;27;45245;-77
2022/04/05 12:01:08;;;;;;;4.10;1.60;;;17.40;72.00;;;;;;5098907;27;45749;-77
2022/04/05 12:03:43;;;;;;;1.98;1.33;;;17.40;73.20;;;;;;5105853;27;45256;-78
2022/04/05 12:06:09;;;;;;;2.58;1.45;;;17.40;73.50;;;;;;5105222;27;45277;-77
2022/04/05 12:08:36;;;;;;;3.17;1.30;;;17.40;73.80;;;;;;5104342;27;45088;-78
2022/04/05 12:11:05;;;;;;;1.65;1.30;;;17.40;74.00;;;;;;5107274;27;45435;-77
2022/04/05 12:13:34;;;;;;;1.90;1.33;;;17.40;74.70;;;;;;5104712;27;45300;-77
2022/04/05 12:16:03;;;;;;;2.70;1.63;;;17.40;74.90;;;;;;5105955;27;45233;-77
2022/04/05 12:18:31;;;;;;;1.92;1.50;;;17.40;75.30;;;;;;5102553;27;45261;-77
2022/04/05 12:20:59;;;;;;;1.30;1.20;;;17.40;75.60;;;;;;5104336;27;45708;-77
2022/04/05 12:23:32;;;;;;;1.50;1.40;;;17.40;75.90;;;;;;5106457;27;45470;-78
2022/04/05 12:26:18;;;;;;;1.63;1.30;;;17.40;76.00;;;;;;5104472;27;45344;-78
2022/04/05 12:28:48;;;;;;;1.77;1.63;;;17.30;75.90;;;;;;5106179;27;45154;-77
2022/04/05 12:31:18;;;;;;;3.30;1.63;;;17.40;76.40;;;;;;5104810;27;45219;-77
2022/04/05 12:33:58;;;;;;;2.78;1.75;;;17.40;77.10;;;;;;5103954;27;47094;-77
2022/04/05 12:36:31;;;;;;;1.42;1.33;;;17.40;77.30;;;;;;5106584;27;45252;-77
2022/04/05 12:38:58;;;;;;;1.63;1.30;;;17.40;77.40;;;;;;5102997;27;45511;-78
2022/04/05 12:41:25;;;;;;;1.60;1.40;;;17.40;78.30;;;;;;5103832;27;45387;-78
2022/04/05 12:44:08;;;;;;;1.55;1.42;;;17.40;78.20;;;;;;5103698;27;48937;-77
2022/04/05 12:46:42;;;;;;;1.80;1.48;;;17.40;78.40;;;;;;5103560;27;46255;-77
2022/04/05 12:49:21;;;;;;;1.42;1.33;;;17.40;78.70;;;;;;5103638;27;45235;-77
2022/04/05 12:51:49;;;;;;;3.22;1.77;;;17.40;79.10;;;;;;5103352;27;46336;-77
2022/04/05 12:54:27;;;;;;;1.85;1.65;;;17.40;79.10;;;;;;5104810;27;45367;-78
2022/04/05 12:56:54;;;;;;;1.48;1.38;;;17.50;79.30;;;;;;5104104;27;45294;-77